createdAt,value
2022-10-18T00:02:20.565Z,17.60
2022-10-18T00:04:47.217Z,17.70
2022-10-18T00:07:13.878Z,17.60
2022-10-18T00:09:40.653Z,17.60
2022-10-18T00:12:07.286Z,17.60
2022-10-18T00:14:33.874Z,17.60
2022-10-18T00:17:00.533Z,17.60
2022-10-18T00:19:29.211Z,17.50
2022-10-18T00:21:56.438Z,17.50
2022-10-18T00:24:23.042Z,17.50
2022-10-18T00:26:49.673Z,17.40
2022-10-18T00:29:16.782Z,17.40
2022-10-18T00:31:44.292Z,17.40
2022-10-18T00:34:16.041Z,17.40
2022-10-18T00:36:43.839Z,17.30
2022-10-18T00:39:16.956Z,17.30
2022-10-18T00:41:44.201Z,17.20
2022-10-18T00:44:13.456Z,17.20
2022-10-18T00:46:42.914Z,17.10
2022-10-18T00:49:16.964Z,17.10
2022-10-18T00:52:00.097Z,17.10
2022-10-18T00:54:29.456Z,17.10
2022-10-18T00:56:56.256Z,17.10
2022-10-18T00:59:24.163Z,17.10
2022-10-18T01:01:50.772Z,17.10
2022-10-18T01:04:18.961Z,17.10
2022-10-18T01:07:27.216Z,17.10
2022-10-18T01:10:02.884Z,17.10
2022-10-18T01:12:52.509Z,17.00
2022-10-18T01:15:34.580Z,17.00
2022-10-18T01:18:14.224Z,17.00
2022-10-18T01:21:18.784Z,17.00
2022-10-18T01:24:10.791Z,16.90
2022-10-18T01:27:02.381Z,17.00
2022-10-18T01:30:08.577Z,16.90
2022-10-18T01:32:41.077Z,16.90
2022-10-18T01:35:13.559Z,16.90
2022-10-18T01:37:44.175Z,16.80
2022-10-18T01:40:14.318Z,16.80
2022-10-18T01:42:42.003Z,16.80
2022-10-18T01:45:10.292Z,16.70
2022-10-18T01:47:37.160Z,16.70
2022-10-18T01:50:06.209Z,16.70
2022-10-18T01:52:33.143Z,16.60
2022-10-18T01:55:01.624Z,16.60
2022-10-18T01:57:40.602Z,16.50
2022-10-18T02:00:24.168Z,16.50
2022-10-18T02:03:16.097Z,16.50
2022-10-18T02:06:12.885Z,16.50
2022-10-18T02:08:49.841Z,16.50
2022-10-18T02:11:18.122Z,16.40
2022-10-18T02:14:06.680Z,16.40
2022-10-18T02:16:41.334Z,16.40
2022-10-18T02:19:14.406Z,16.30
2022-10-18T02:21:43.295Z,16.30
2022-10-18T02:24:12.799Z,16.40
2022-10-18T02:26:39.574Z,16.30
2022-10-18T02:29:06.832Z,16.30
2022-10-18T02:31:42.168Z,16.40
2022-10-18T02:34:34.489Z,16.40
2022-10-18T02:37:02.284Z,16.40
2022-10-18T02:39:37.905Z,16.40
2022-10-18T02:42:08.817Z,16.30
2022-10-18T02:44:36.817Z,16.30
2022-10-18T02:47:05.192Z,16.30
2022-10-18T02:49:31.828Z,16.30
2022-10-18T02:51:58.456Z,16.30
2022-10-18T02:54:25.141Z,16.30
2022-10-18T02:56:51.798Z,16.30
2022-10-18T02:59:18.387Z,16.30
2022-10-18T03:01:45.147Z,16.30
2022-10-18T03:04:11.911Z,16.30
2022-10-18T03:06:38.632Z,16.30
2022-10-18T03:09:06.574Z,16.20
2022-10-18T03:11:33.334Z,16.30
2022-10-18T03:14:00.094Z,16.30
2022-10-18T03:16:27.633Z,16.30
2022-10-18T03:18:54.275Z,16.30
2022-10-18T03:21:20.913Z,16.20
2022-10-18T03:23:47.502Z,16.20
2022-10-18T03:26:14.177Z,16.30
2022-10-18T03:28:40.806Z,16.20
2022-10-18T03:31:07.456Z,16.30
2022-10-18T03:33:34.126Z,16.20
2022-10-18T03:36:00.703Z,16.30
2022-10-18T03:38:27.613Z,16.30
2022-10-18T03:40:54.244Z,16.30
2022-10-18T03:43:21.142Z,16.30
2022-10-18T03:45:47.770Z,16.30
2022-10-18T03:48:14.364Z,16.20
2022-10-18T03:50:41.032Z,16.20
2022-10-18T03:53:07.731Z,16.20
2022-10-18T03:55:34.401Z,16.20
2022-10-18T03:58:00.985Z,16.20
2022-10-18T04:00:27.622Z,16.20
2022-10-18T04:02:55.943Z,16.20
2022-10-18T04:05:28.099Z,16.20
2022-10-18T04:07:55.040Z,16.20
2022-10-18T04:10:22.103Z,16.20
2022-10-18T04:12:48.741Z,16.20
2022-10-18T04:15:15.532Z,16.10
2022-10-18T04:17:42.175Z,16.10
2022-10-18T04:20:09.229Z,16.10
2022-10-18T04:22:35.827Z,16.10
2022-10-18T04:25:02.500Z,16.10
2022-10-18T04:27:29.294Z,16.10
2022-10-18T04:29:56.170Z,16.10
2022-10-18T04:32:23.186Z,16.10
2022-10-18T04:34:49.868Z,16.10
2022-10-18T04:37:17.251Z,16.10
2022-10-18T04:39:51.168Z,16.10
2022-10-18T04:42:20.817Z,16.00
2022-10-18T04:44:47.602Z,16.00
2022-10-18T04:47:14.242Z,16.00
2022-10-18T04:49:40.976Z,16.00
2022-10-18T04:52:07.873Z,16.00
2022-10-18T04:54:34.876Z,16.00
2022-10-18T04:57:01.479Z,16.00
2022-10-18T04:59:28.325Z,15.90
2022-10-18T05:01:55.085Z,15.90
2022-10-18T05:04:21.738Z,15.90
2022-10-18T05:06:48.411Z,15.90
2022-10-18T05:09:15.073Z,15.90
2022-10-18T05:11:41.739Z,15.90
2022-10-18T05:14:10.143Z,16.00
2022-10-18T05:16:36.801Z,16.00
2022-10-18T05:19:05.548Z,16.00
2022-10-18T05:21:32.843Z,16.00
2022-10-18T05:23:59.595Z,16.10
2022-10-18T05:26:26.337Z,16.10
2022-10-18T05:28:53.028Z,16.10
2022-10-18T05:31:19.734Z,16.10
2022-10-18T05:33:46.347Z,16.20
2022-10-18T05:36:12.935Z,16.10
2022-10-18T05:38:43.429Z,16.10
2022-10-18T05:41:10.930Z,16.10
2022-10-18T05:43:38.364Z,16.00
2022-10-18T05:46:07.256Z,16.00
2022-10-18T05:48:35.937Z,16.00
2022-10-18T05:51:02.601Z,16.00
2022-10-18T05:53:36.824Z,16.00
2022-10-18T05:56:04.589Z,16.00
2022-10-18T05:58:31.213Z,15.90
2022-10-18T06:01:01.968Z,16.00
2022-10-18T06:03:30.471Z,15.90
2022-10-18T06:06:04.742Z,15.90
2022-10-18T06:08:31.780Z,15.90
2022-10-18T06:10:58.374Z,15.90
2022-10-18T06:13:25.133Z,15.90
2022-10-18T06:15:57.365Z,15.90
2022-10-18T06:18:24.061Z,15.90
2022-10-18T06:20:56.572Z,16.00
2022-10-18T06:23:23.158Z,16.00
2022-10-18T06:25:49.727Z,16.00
2022-10-18T06:28:16.332Z,16.10
2022-10-18T06:30:42.941Z,16.00
2022-10-18T06:33:11.854Z,16.10
2022-10-18T06:35:38.490Z,16.10
2022-10-18T06:38:06.203Z,16.10
2022-10-18T06:40:37.842Z,16.10
2022-10-18T06:43:20.093Z,16.10
2022-10-18T06:45:47.771Z,16.10
2022-10-18T06:48:14.367Z,16.10
2022-10-18T06:50:40.952Z,16.10
2022-10-18T06:53:08.966Z,16.00
2022-10-18T06:55:35.929Z,16.10
2022-10-18T06:58:02.694Z,16.10
2022-10-18T07:00:29.461Z,16.10
2022-10-18T07:02:58.191Z,16.20
2022-10-18T07:05:24.973Z,16.20
2022-10-18T07:07:54.299Z,16.20
2022-10-18T07:10:25.030Z,16.20
2022-10-18T07:12:59.218Z,16.20
2022-10-18T07:15:38.234Z,16.20
2022-10-18T07:18:04.788Z,16.20
2022-10-18T07:20:31.413Z,16.30
2022-10-18T07:22:58.081Z,16.20
2022-10-18T07:25:27.162Z,16.20
2022-10-18T07:27:56.611Z,16.30
2022-10-18T07:30:23.234Z,16.30
2022-10-18T07:32:51.785Z,16.20
2022-10-18T07:35:18.797Z,16.20
2022-10-18T07:37:45.400Z,16.20
2022-10-18T07:40:12.472Z,16.10
2022-10-18T07:42:39.120Z,16.10
2022-10-18T07:45:05.902Z,16.20
2022-10-18T07:47:35.102Z,16.20
2022-10-18T07:50:02.065Z,16.20
2022-10-18T07:52:28.658Z,16.20
2022-10-18T07:54:55.223Z,16.30
2022-10-18T07:57:23.310Z,16.30
2022-10-18T07:59:56.083Z,16.30
2022-10-18T08:02:24.114Z,16.30
2022-10-18T08:04:50.870Z,16.40
2022-10-18T08:07:17.512Z,16.40
2022-10-18T08:09:44.081Z,16.40
2022-10-18T08:12:10.798Z,16.40
2022-10-18T08:14:37.365Z,16.30
2022-10-18T08:17:03.999Z,16.30
2022-10-18T08:19:30.682Z,16.30
2022-10-18T08:21:57.304Z,16.30
2022-10-18T08:24:23.980Z,16.40
2022-10-18T08:26:50.618Z,16.40
2022-10-18T08:29:23.941Z,16.50
2022-10-18T08:31:52.471Z,16.40
2022-10-18T08:34:19.973Z,16.40
2022-10-18T08:36:46.797Z,16.40
2022-10-18T08:39:13.406Z,16.40
2022-10-18T08:41:51.314Z,16.50
2022-10-18T08:44:22.666Z,16.50
2022-10-18T08:46:59.638Z,16.50
2022-10-18T08:49:47.027Z,16.60
2022-10-18T08:52:41.877Z,16.60
2022-10-18T08:55:30.140Z,16.70
2022-10-18T08:57:58.238Z,16.80
2022-10-18T09:00:30.491Z,16.80
2022-10-18T09:03:18.724Z,16.90
2022-10-18T09:05:50.457Z,16.90
2022-10-18T09:08:24.821Z,17.00
2022-10-18T09:11:21.131Z,17.10
2022-10-18T09:14:02.330Z,17.20
2022-10-18T09:16:46.380Z,17.30
2022-10-18T09:19:29.643Z,17.30
2022-10-18T09:22:13.861Z,17.30
2022-10-18T09:24:52.568Z,17.40
2022-10-18T09:27:22.147Z,17.30
2022-10-18T09:30:02.702Z,17.40
2022-10-18T09:32:51.552Z,17.40
2022-10-18T09:35:40.939Z,17.40
2022-10-18T09:38:12.584Z,17.40
2022-10-18T09:41:09.286Z,17.50
2022-10-18T09:43:47.922Z,17.30
2022-10-18T09:46:16.847Z,17.20
2022-10-18T09:48:58.493Z,17.20
2022-10-18T09:51:29.668Z,17.20
2022-10-18T09:54:20.609Z,17.30
2022-10-18T09:57:10.326Z,17.30
2022-10-18T09:59:47.909Z,17.20
2022-10-18T10:02:25.014Z,17.20
2022-10-18T10:04:54.096Z,17.30
2022-10-18T10:07:28.594Z,17.40
2022-10-18T10:10:06.886Z,17.50
2022-10-18T10:12:38.096Z,17.60
2022-10-18T10:15:20.254Z,17.60
2022-10-18T10:17:57.250Z,17.70
2022-10-18T10:20:42.037Z,17.70
2022-10-18T10:23:33.902Z,17.60
2022-10-18T10:26:27.702Z,17.60
2022-10-18T10:28:54.536Z,17.60
2022-10-18T10:31:24.061Z,17.70
2022-10-18T10:34:14.958Z,17.70
2022-10-18T10:36:53.174Z,17.70
2022-10-18T10:39:22.538Z,17.70
2022-10-18T10:41:52.283Z,17.80
2022-10-18T10:44:21.381Z,17.90
2022-10-18T10:46:49.958Z,17.90
2022-10-18T10:49:39.198Z,18.00
2022-10-18T10:52:08.700Z,18.10
2022-10-18T10:54:50.414Z,18.20
2022-10-18T10:57:25.853Z,18.50
2022-10-18T10:59:56.023Z,18.60
2022-10-18T11:02:30.877Z,18.70
2022-10-18T11:05:25.646Z,18.80
2022-10-18T11:07:59.244Z,18.70
2022-10-18T11:10:30.637Z,18.70
2022-10-18T11:13:24.597Z,18.70
2022-10-18T11:16:00.296Z,18.70
2022-10-18T11:18:37.036Z,18.70
2022-10-18T11:21:08.125Z,18.80
2022-10-18T11:23:37.428Z,18.70
2022-10-18T11:26:13.200Z,18.70
2022-10-18T11:29:08.131Z,18.60
2022-10-18T11:32:07.791Z,18.60
2022-10-18T11:34:54.475Z,18.50
2022-10-18T11:37:40.417Z,18.60
2022-10-18T11:40:36.297Z,18.70
2022-10-18T11:44:01.798Z,19.00
2022-10-18T11:46:48.104Z,19.30
2022-10-18T11:49:56.841Z,19.40
2022-10-18T11:52:53.304Z,19.80
2022-10-18T11:55:46.081Z,20.30
2022-10-18T11:58:30.787Z,20.40
2022-10-18T12:01:06.373Z,20.30
2022-10-18T12:03:52.642Z,20.20
2022-10-18T12:06:23.729Z,20.00
2022-10-18T12:08:56.387Z,19.90
2022-10-18T12:11:34.480Z,19.70
2022-10-18T12:14:50.728Z,19.70
2022-10-18T12:17:58.154Z,19.40
2022-10-18T12:20:49.782Z,19.30
2022-10-18T12:23:39.009Z,19.30
2022-10-18T12:26:11.750Z,19.30
2022-10-18T12:29:39.896Z,19.40
2022-10-18T12:32:14.472Z,19.40
2022-10-18T12:34:43.465Z,19.40
2022-10-18T12:37:44.166Z,19.30
2022-10-18T12:40:21.575Z,19.30
2022-10-18T12:43:02.649Z,19.50
2022-10-18T12:45:35.388Z,19.50
2022-10-18T12:48:06.381Z,19.90
2022-10-18T12:50:36.753Z,20.20
2022-10-18T12:53:06.315Z,20.50
2022-10-18T12:55:38.598Z,20.80
2022-10-18T12:58:21.064Z,20.70
2022-10-18T13:00:47.768Z,20.70
2022-10-18T13:03:16.571Z,20.80
2022-10-18T13:05:54.376Z,20.80
2022-10-18T13:08:27.843Z,20.70
2022-10-18T13:11:09.879Z,20.70
2022-10-18T13:13:50.588Z,20.70
2022-10-18T13:16:35.449Z,20.70
2022-10-18T13:19:17.351Z,20.70
2022-10-18T13:22:07.450Z,20.70
2022-10-18T13:25:05.434Z,20.60
2022-10-18T13:28:07.408Z,20.20
2022-10-18T13:30:45.802Z,20.30
2022-10-18T13:33:35.465Z,20.60
2022-10-18T13:36:22.989Z,20.60
2022-10-18T13:39:03.687Z,20.30
2022-10-18T13:41:43.492Z,20.40
2022-10-18T13:44:43.820Z,20.40
2022-10-18T13:47:16.313Z,20.30
2022-10-18T13:50:19.096Z,20.10
2022-10-18T13:53:20.722Z,20.00
2022-10-18T13:56:48.637Z,19.80
2022-10-18T13:59:31.613Z,19.70
2022-10-18T14:02:36.501Z,19.80
2022-10-18T14:05:32.269Z,19.60
2022-10-18T14:08:14.447Z,19.30
2022-10-18T14:11:01.892Z,19.00
2022-10-18T14:13:38.694Z,18.90
2022-10-18T14:16:17.442Z,18.90
2022-10-18T14:18:47.153Z,18.90
2022-10-18T14:21:26.264Z,18.90
2022-10-18T14:23:55.721Z,19.10
2022-10-18T14:26:22.825Z,19.20
2022-10-18T14:29:06.354Z,19.10
2022-10-18T14:31:34.507Z,19.10
2022-10-18T14:34:02.443Z,18.90
2022-10-18T14:36:40.978Z,18.80
2022-10-18T14:39:18.350Z,18.80
2022-10-18T14:41:56.776Z,18.70
2022-10-18T14:44:29.329Z,18.60
2022-10-18T14:47:16.285Z,18.50
2022-10-18T14:49:44.781Z,18.50
2022-10-18T14:52:35.097Z,18.40
2022-10-18T14:55:02.538Z,18.40
2022-10-18T14:57:35.951Z,18.30
2022-10-18T15:00:08.913Z,18.20
2022-10-18T15:02:37.862Z,18.20
2022-10-18T15:05:31.003Z,18.20
2022-10-18T15:07:59.987Z,18.20
2022-10-18T15:10:30.832Z,18.20
2022-10-18T15:13:11.243Z,18.30
2022-10-18T15:15:39.199Z,18.30
2022-10-18T15:18:06.826Z,18.30
2022-10-18T15:20:39.513Z,18.20
2022-10-18T15:23:23.150Z,18.10
2022-10-18T15:25:52.034Z,18.00
2022-10-18T15:28:32.574Z,17.90
2022-10-18T15:31:01.618Z,17.70
2022-10-18T15:33:34.290Z,17.50
2022-10-18T15:36:12.518Z,17.40
2022-10-18T15:38:39.317Z,17.30
2022-10-18T15:41:44.890Z,17.10
2022-10-18T15:44:46.761Z,17.00
2022-10-18T15:47:13.353Z,16.90
2022-10-18T15:49:46.182Z,16.80
2022-10-18T15:52:21.713Z,16.70
2022-10-18T15:57:20.645Z,16.50
2022-10-18T16:00:00.484Z,16.40
2022-10-18T16:02:27.089Z,16.30
2022-10-18T16:04:53.967Z,16.20
2022-10-18T16:07:20.607Z,16.10
2022-10-18T16:09:47.246Z,16.10
2022-10-18T16:12:13.886Z,16.00
2022-10-18T16:14:40.465Z,15.90
2022-10-18T16:17:07.498Z,15.80
2022-10-18T16:19:34.146Z,15.70
2022-10-18T16:22:06.084Z,15.60
2022-10-18T16:24:33.385Z,15.50
2022-10-18T16:27:00.110Z,15.40
2022-10-18T16:29:28.745Z,15.30
2022-10-18T16:31:58.477Z,15.20
2022-10-18T16:34:27.017Z,15.10
2022-10-18T16:36:54.300Z,15.00
2022-10-18T16:39:22.017Z,14.90
2022-10-18T16:41:49.252Z,14.90
2022-10-18T16:44:16.673Z,14.80
2022-10-18T16:46:43.381Z,14.70
2022-10-18T16:51:52.498Z,14.60
2022-10-18T16:54:19.430Z,14.50
2022-10-18T16:56:47.738Z,14.50
2022-10-18T16:59:27.326Z,14.40
2022-10-18T17:01:54.001Z,14.30
2022-10-18T17:04:20.689Z,14.30
2022-10-18T17:06:48.932Z,14.20
2022-10-18T17:09:16.307Z,14.10
2022-10-18T17:11:43.135Z,14.10
2022-10-18T17:14:09.720Z,14.00
2022-10-18T17:16:38.611Z,14.00
2022-10-18T17:19:07.641Z,14.00
2022-10-18T17:21:34.815Z,14.00
2022-10-18T17:24:03.040Z,14.00
2022-10-18T17:26:30.519Z,13.90
2022-10-18T17:29:04.226Z,13.90
2022-10-18T17:31:31.947Z,13.90
2022-10-18T17:34:01.377Z,13.90
2022-10-18T17:36:28.221Z,13.90
2022-10-18T17:38:55.804Z,13.80
2022-10-18T17:41:22.845Z,13.80
2022-10-18T17:43:53.109Z,13.80
2022-10-18T17:46:23.695Z,13.80
2022-10-18T17:48:50.382Z,13.70
2022-10-18T17:51:17.467Z,13.70
2022-10-18T17:53:44.269Z,13.70
2022-10-18T17:56:11.837Z,13.60
2022-10-18T17:58:38.686Z,13.50
2022-10-18T18:01:20.041Z,13.50
2022-10-18T18:03:49.834Z,13.40
2022-10-18T18:06:30.768Z,13.40
2022-10-18T18:08:58.667Z,13.40
2022-10-18T18:11:25.609Z,13.30
2022-10-18T18:13:54.221Z,13.30
2022-10-18T18:16:23.292Z,13.30
2022-10-18T18:18:53.828Z,13.20
2022-10-18T18:21:21.405Z,13.20
2022-10-18T18:23:48.988Z,13.20
2022-10-18T18:26:17.366Z,13.20
2022-10-18T18:28:44.292Z,13.20
2022-10-18T18:31:16.265Z,13.10
2022-10-18T18:33:43.608Z,13.10
2022-10-18T18:36:10.912Z,13.00
2022-10-18T18:38:39.670Z,13.00
2022-10-18T18:41:17.899Z,13.00
2022-10-18T18:43:49.266Z,12.90
2022-10-18T18:46:15.925Z,12.90
2022-10-18T18:48:42.607Z,12.90
2022-10-18T18:51:14.334Z,12.80
2022-10-18T18:53:42.171Z,12.80
2022-10-18T18:56:12.044Z,12.80
2022-10-18T18:58:40.103Z,12.70
2022-10-18T19:01:12.450Z,12.60
2022-10-18T19:03:40.349Z,12.60
2022-10-18T19:06:09.878Z,12.60
2022-10-18T19:08:38.288Z,12.60
2022-10-18T19:11:08.920Z,12.50
2022-10-18T19:13:36.196Z,12.50
2022-10-18T19:16:24.628Z,12.40
2022-10-18T19:18:59.950Z,12.40
2022-10-18T19:21:35.961Z,12.40
2022-10-18T19:24:03.901Z,12.30
2022-10-18T19:26:37.336Z,12.30
2022-10-18T19:29:09.643Z,12.30
2022-10-18T19:31:36.840Z,12.20
2022-10-18T19:34:05.763Z,12.20
2022-10-18T19:36:32.521Z,12.20
2022-10-18T19:38:59.261Z,12.20
2022-10-18T19:41:28.132Z,12.20
2022-10-18T19:43:55.907Z,12.10
2022-10-18T19:46:22.885Z,12.10
2022-10-18T19:48:49.585Z,12.10
2022-10-18T19:51:20.239Z,12.10
2022-10-18T19:53:50.725Z,12.10
2022-10-18T19:56:20.623Z,12.10
2022-10-18T19:58:48.062Z,12.00
2022-10-18T20:01:15.337Z,12.10
2022-10-18T20:03:42.806Z,12.00
2022-10-18T20:06:09.497Z,12.00
2022-10-18T20:08:37.100Z,12.00
2022-10-18T20:11:06.565Z,12.00
2022-10-18T20:13:33.937Z,12.00
2022-10-18T20:16:00.865Z,12.00
2022-10-18T20:18:27.667Z,11.90
2022-10-18T20:20:54.342Z,11.90
2022-10-18T20:23:21.261Z,11.90
2022-10-18T20:25:56.918Z,11.90
2022-10-18T20:28:24.990Z,11.90
2022-10-18T20:31:04.922Z,11.90
2022-10-18T20:33:31.647Z,11.90
2022-10-18T20:36:13.398Z,11.80
2022-10-18T20:38:41.270Z,11.80
2022-10-18T20:41:15.118Z,11.80
2022-10-18T20:43:42.507Z,11.80
2022-10-18T20:46:10.208Z,11.80
2022-10-18T20:48:38.553Z,11.70
2022-10-18T20:51:08.022Z,11.70
2022-10-18T20:53:35.598Z,11.70
2022-10-18T20:56:08.025Z,11.70
2022-10-18T20:58:35.718Z,11.70
2022-10-18T21:01:13.751Z,11.70
2022-10-18T21:03:42.811Z,11.70
2022-10-18T21:06:14.766Z,11.70
2022-10-18T21:08:42.101Z,11.70
2022-10-18T21:11:09.542Z,11.70
2022-10-18T21:13:47.461Z,11.70
2022-10-18T21:16:14.094Z,11.70
2022-10-18T21:18:40.676Z,11.70
2022-10-18T21:23:44.747Z,11.70
2022-10-18T21:26:22.489Z,11.70
2022-10-18T21:29:00.464Z,11.70
2022-10-18T21:31:36.224Z,11.70
2022-10-18T21:34:05.307Z,11.70
2022-10-18T21:36:34.654Z,11.80
2022-10-18T21:39:03.457Z,11.80
2022-10-18T21:41:31.174Z,11.80
2022-10-18T21:43:57.845Z,11.90
2022-10-18T21:46:26.851Z,12.00
2022-10-18T21:48:55.436Z,12.10
2022-10-18T21:51:24.388Z,12.10
2022-10-18T21:53:53.054Z,12.20
2022-10-18T21:56:21.903Z,12.20
2022-10-18T21:58:48.556Z,12.30
2022-10-18T22:01:23.860Z,12.40
2022-10-18T22:03:54.066Z,12.40
2022-10-18T22:06:21.959Z,12.40
2022-10-18T22:08:58.122Z,12.50
2022-10-18T22:11:28.565Z,12.50
2022-10-18T22:13:55.841Z,12.50
2022-10-18T22:16:22.707Z,12.60
2022-10-18T22:18:50.292Z,12.60
2022-10-18T22:21:20.029Z,12.60
2022-10-18T22:23:51.021Z,12.60
2022-10-18T22:26:29.080Z,12.60
2022-10-18T22:29:01.021Z,12.60
2022-10-18T22:31:30.943Z,12.60
2022-10-18T22:34:00.164Z,12.60
2022-10-18T22:36:27.629Z,12.50
2022-10-18T22:38:54.490Z,12.50
2022-10-18T22:41:21.113Z,12.50
2022-10-18T22:43:49.473Z,12.50
2022-10-18T22:46:16.493Z,12.40
2022-10-18T22:48:43.790Z,12.40
2022-10-18T22:51:10.921Z,12.40
2022-10-18T22:53:39.094Z,12.30
2022-10-18T22:56:06.629Z,12.30
2022-10-18T22:58:33.785Z,12.20
2022-10-18T23:01:05.604Z,12.10
2022-10-18T23:03:32.262Z,12.10
2022-10-18T23:05:59.296Z,12.00
2022-10-18T23:08:26.593Z,11.90
2022-10-18T23:10:55.841Z,11.90
2022-10-18T23:13:23.839Z,11.80
2022-10-18T23:15:51.004Z,11.80
2022-10-18T23:18:18.145Z,11.80
2022-10-18T23:20:45.518Z,11.70
2022-10-18T23:23:13.018Z,11.60
2022-10-18T23:25:40.188Z,11.60
2022-10-18T23:28:07.112Z,11.60
2022-10-18T23:30:33.850Z,11.60
2022-10-18T23:33:00.482Z,11.60
2022-10-18T23:35:29.443Z,11.50
2022-10-18T23:37:56.074Z,11.50
2022-10-18T23:40:22.640Z,11.50
2022-10-18T23:42:49.222Z,11.50
2022-10-18T23:45:15.814Z,11.40
2022-10-18T23:47:42.421Z,11.40
2022-10-18T23:50:09.615Z,11.40
2022-10-18T23:52:36.206Z,11.40
2022-10-18T23:55:02.971Z,11.50
2022-10-18T23:57:29.594Z,11.50
2022-10-18T23:59:56.187Z,11.50
